createdAt,value
2018-07-21T00:02:22.604Z,19.49
2018-07-21T00:04:50.011Z,19.29
2018-07-21T00:07:17.253Z,19.24
2018-07-21T00:09:44.525Z,19.23
2018-07-21T00:12:11.804Z,19.16
2018-07-21T00:14:39.059Z,19.13
2018-07-21T00:19:56.439Z,18.88
2018-07-21T00:22:23.752Z,18.88
2018-07-21T00:24:50.994Z,18.76
2018-07-21T00:27:18.203Z,18.56
2018-07-21T00:29:45.919Z,18.54
2018-07-21T00:32:13.905Z,18.55
2018-07-21T00:34:41.167Z,18.52
2018-07-21T00:37:08.428Z,18.45
2018-07-21T00:39:37.534Z,18.24
2018-07-21T00:42:04.895Z,18.09
2018-07-21T00:44:32.789Z,17.92
2018-07-21T00:47:00.058Z,17.88
2018-07-21T00:49:27.333Z,17.88
2018-07-21T00:51:54.609Z,17.87
2018-07-21T00:54:21.918Z,17.93
2018-07-21T00:56:49.207Z,17.99
2018-07-21T00:59:16.496Z,17.98
2018-07-21T01:01:44.055Z,17.93
2018-07-21T01:04:11.383Z,17.92
2018-07-21T01:06:38.749Z,17.85
2018-07-21T01:09:07.647Z,17.74
2018-07-21T01:11:34.924Z,17.57
2018-07-21T01:14:02.186Z,17.51
2018-07-21T01:16:29.506Z,17.56
2018-07-21T01:18:56.751Z,17.58
2018-07-21T01:21:24.031Z,17.67
2018-07-21T01:23:51.291Z,17.70
2018-07-21T01:26:18.606Z,17.72
2018-07-21T01:28:45.854Z,17.69
2018-07-21T01:31:13.125Z,17.61
2018-07-21T01:33:40.353Z,17.65
2018-07-21T01:36:07.622Z,17.60
2018-07-21T01:38:34.886Z,17.63
2018-07-21T01:41:02.210Z,17.62
2018-07-21T01:43:29.454Z,17.60
2018-07-21T01:45:56.793Z,17.56
2018-07-21T01:48:24.047Z,17.55
2018-07-21T01:50:51.307Z,17.42
2018-07-21T01:53:18.547Z,17.33
2018-07-21T01:55:45.872Z,17.24
2018-07-21T01:58:13.449Z,17.23
2018-07-21T02:00:41.218Z,17.27
2018-07-21T02:03:08.487Z,17.32
2018-07-21T02:05:35.798Z,17.36
2018-07-21T02:08:03.045Z,17.36
2018-07-21T02:10:30.275Z,17.34
2018-07-21T02:12:57.607Z,17.33
2018-07-21T02:15:24.879Z,17.30
2018-07-21T02:17:52.134Z,17.25
2018-07-21T02:20:19.370Z,17.21
2018-07-21T02:22:46.654Z,17.17
2018-07-21T02:25:13.855Z,17.08
2018-07-21T02:27:41.201Z,16.98
2018-07-21T02:30:08.426Z,16.89
2018-07-21T02:32:35.682Z,16.78
2018-07-21T02:35:02.944Z,16.64
2018-07-21T02:37:30.232Z,16.52
2018-07-21T02:39:57.458Z,16.50
2018-07-21T02:42:24.730Z,16.53
2018-07-21T02:44:52.206Z,16.59
2018-07-21T02:47:19.501Z,16.64
2018-07-21T02:49:46.780Z,16.68
2018-07-21T02:52:14.030Z,16.70
2018-07-21T02:54:41.314Z,16.71
2018-07-21T02:57:08.593Z,16.79
2018-07-21T02:59:35.903Z,16.84
2018-07-21T03:02:03.226Z,16.88
2018-07-21T03:04:30.463Z,16.92
2018-07-21T03:06:57.817Z,17.01
2018-07-21T03:09:25.194Z,17.13
2018-07-21T03:11:52.575Z,17.20
2018-07-21T03:14:20.485Z,17.30
2018-07-21T03:16:48.703Z,17.36
2018-07-21T03:19:17.437Z,17.40
2018-07-21T03:21:45.932Z,17.44
2018-07-21T03:24:14.576Z,17.44
2018-07-21T03:26:42.570Z,17.42
2018-07-21T03:29:10.026Z,17.46
2018-07-21T03:31:37.383Z,17.45
2018-07-21T03:34:04.888Z,17.47
2018-07-21T03:36:32.312Z,17.51
2018-07-21T03:38:59.729Z,17.53
2018-07-21T03:41:27.453Z,17.54
2018-07-21T03:43:55.461Z,17.48
2018-07-21T03:46:22.770Z,17.45
2018-07-21T03:48:50.113Z,17.45
2018-07-21T03:51:18.052Z,17.50
2018-07-21T03:53:45.421Z,17.52
2018-07-21T03:56:12.723Z,17.56
2018-07-21T03:58:40.068Z,17.61
2018-07-21T04:01:07.362Z,17.65
2018-07-21T04:03:34.923Z,17.73
2018-07-21T04:06:02.288Z,17.78
2018-07-21T04:08:29.741Z,17.86
2018-07-21T04:10:58.205Z,17.91
2018-07-21T04:13:25.570Z,17.95
2018-07-21T04:15:53.128Z,17.91
2018-07-21T04:18:21.438Z,17.93
2018-07-21T04:20:48.775Z,17.96
2018-07-21T04:23:16.168Z,17.96
2018-07-21T04:25:44.256Z,17.94
2018-07-21T04:28:11.625Z,17.95
2018-07-21T04:30:38.983Z,17.97
2018-07-21T04:33:06.959Z,18.02
2018-07-21T04:35:34.300Z,18.03
2018-07-21T04:38:01.880Z,18.03
2018-07-21T04:40:29.200Z,18.05
2018-07-21T04:42:56.575Z,18.07
2018-07-21T04:45:23.960Z,18.17
2018-07-21T04:47:51.293Z,18.19
2018-07-21T04:50:18.602Z,18.09
2018-07-21T04:52:46.079Z,18.09
2018-07-21T04:55:13.590Z,18.06
2018-07-21T04:57:40.950Z,18.12
2018-07-21T05:00:08.296Z,18.26
2018-07-21T05:02:35.593Z,18.41
2018-07-21T05:05:03.056Z,18.64
2018-07-21T05:07:30.588Z,18.89
2018-07-21T05:09:58.630Z,19.14
2018-07-21T05:12:25.995Z,19.35
2018-07-21T05:14:53.583Z,19.54
2018-07-21T05:17:20.970Z,19.78
2018-07-21T05:19:48.426Z,19.99
2018-07-21T05:22:15.766Z,20.27
2018-07-21T05:24:43.163Z,20.44
2018-07-21T05:27:10.597Z,20.59
2018-07-21T05:29:37.959Z,20.73
2018-07-21T05:32:05.339Z,20.89
2018-07-21T05:34:32.809Z,21.05
2018-07-21T05:37:00.744Z,21.17
2018-07-21T05:39:28.153Z,21.32
2018-07-21T05:41:56.290Z,21.49
2018-07-21T05:44:24.243Z,21.61
2018-07-21T05:46:51.581Z,21.72
2018-07-21T05:49:19.776Z,21.81
2018-07-21T05:51:47.090Z,21.63
2018-07-21T05:54:14.410Z,21.49
2018-07-21T05:56:41.745Z,21.61
2018-07-21T05:59:09.146Z,21.86
2018-07-21T06:01:36.663Z,22.10
2018-07-21T06:04:04.049Z,22.45
2018-07-21T06:06:31.391Z,22.57
2018-07-21T06:08:58.842Z,22.72
2018-07-21T06:11:26.306Z,22.72
2018-07-21T06:13:53.663Z,22.81
2018-07-21T06:16:21.983Z,22.95
2018-07-21T06:18:49.411Z,23.03
2018-07-21T06:21:16.693Z,23.07
2018-07-21T06:23:44.056Z,22.99
2018-07-21T06:26:11.518Z,23.01
2018-07-21T06:28:38.910Z,23.28
2018-07-21T06:31:06.518Z,23.46
2018-07-21T06:33:33.965Z,23.72
2018-07-21T06:36:01.354Z,23.84
2018-07-21T06:38:28.715Z,24.09
2018-07-21T06:40:58.395Z,24.41
2018-07-21T06:43:26.474Z,24.54
2018-07-21T06:45:53.803Z,24.83
2018-07-21T06:48:21.908Z,24.83
2018-07-21T06:50:50.142Z,25.05
2018-07-21T06:53:17.458Z,25.22
2018-07-21T06:55:44.848Z,25.48
2018-07-21T06:58:12.572Z,25.51
2018-07-21T07:00:46.488Z,25.58
2018-07-21T07:03:13.987Z,25.52
2018-07-21T07:05:41.390Z,25.95
2018-07-21T07:08:09.438Z,25.83
2018-07-21T07:10:36.787Z,26.12
2018-07-21T07:13:04.142Z,26.32
2018-07-21T07:15:32.002Z,26.39
2018-07-21T07:17:59.331Z,26.75
2018-07-21T07:20:26.718Z,27.00
2018-07-21T07:22:54.175Z,27.23
2018-07-21T07:25:21.577Z,27.41
2018-07-21T07:27:48.892Z,27.43
2018-07-21T07:30:16.217Z,27.47
2018-07-21T07:32:43.538Z,27.98
2018-07-21T07:35:11.031Z,27.98
2018-07-21T07:37:38.416Z,27.60
2018-07-21T07:40:05.932Z,27.86
2018-07-21T07:42:33.588Z,28.01
2018-07-21T07:45:01.237Z,28.03
2018-07-21T07:47:28.519Z,27.97
2018-07-21T07:49:55.907Z,27.92
2018-07-21T07:52:23.194Z,28.27
2018-07-21T07:54:50.573Z,27.97
2018-07-21T07:57:17.889Z,27.61
2018-07-21T07:59:45.253Z,27.55
2018-07-21T08:02:12.567Z,27.54
2018-07-21T08:04:39.889Z,27.51
2018-07-21T08:07:07.258Z,27.45
2018-07-21T08:09:34.574Z,27.41
2018-07-21T08:12:01.871Z,26.95
2018-07-21T08:14:30.252Z,27.00
2018-07-21T08:16:57.585Z,27.04
2018-07-21T08:19:24.932Z,27.20
2018-07-21T08:21:52.259Z,27.39
2018-07-21T08:24:21.575Z,27.30
2018-07-21T08:26:50.324Z,26.82
2018-07-21T08:29:18.217Z,26.64
2018-07-21T08:31:45.564Z,26.65
2018-07-21T08:34:12.881Z,26.65
2018-07-21T08:36:40.222Z,26.74
2018-07-21T08:39:08.993Z,26.82
2018-07-21T08:41:36.626Z,26.82
2018-07-21T08:44:03.991Z,26.64
2018-07-21T08:46:31.350Z,26.58
2018-07-21T08:48:58.714Z,26.51
2018-07-21T08:51:26.064Z,26.53
2018-07-21T08:53:53.351Z,26.56
2018-07-21T08:56:21.822Z,26.62
2018-07-21T08:58:49.736Z,26.75
2018-07-21T09:01:17.051Z,26.82
2018-07-21T09:03:44.501Z,27.04
2018-07-21T09:06:11.810Z,27.31
2018-07-21T09:08:39.158Z,27.35
2018-07-21T09:11:06.521Z,27.25
2018-07-21T09:13:33.885Z,27.45
2018-07-21T09:16:01.225Z,27.71
2018-07-21T09:18:29.322Z,27.48
2018-07-21T09:20:57.258Z,27.18
2018-07-21T09:23:24.499Z,27.03
2018-07-21T09:25:52.076Z,27.14
2018-07-21T09:28:19.408Z,27.17
2018-07-21T09:30:47.259Z,27.33
2018-07-21T09:33:15.088Z,27.45
2018-07-21T09:35:42.446Z,27.54
2018-07-21T09:38:09.769Z,27.65
2018-07-21T09:40:37.712Z,27.52
2018-07-21T09:43:05.560Z,27.47
2018-07-21T09:45:32.877Z,27.40
2018-07-21T09:48:01.036Z,27.47
2018-07-21T09:50:28.480Z,27.43
2018-07-21T09:52:55.934Z,27.29
2018-07-21T09:55:23.129Z,27.21
2018-07-21T09:57:51.227Z,27.02
2018-07-21T10:00:24.259Z,26.74
2018-07-21T10:02:51.928Z,26.61
2018-07-21T10:05:20.446Z,26.45
2018-07-21T10:07:47.899Z,26.32
2018-07-21T10:10:16.125Z,26.24
2018-07-21T10:12:43.548Z,26.08
2018-07-21T10:15:10.861Z,25.97
2018-07-21T10:17:38.407Z,25.74
2018-07-21T10:20:05.770Z,25.70
2018-07-21T10:22:33.112Z,25.71
2018-07-21T10:25:06.105Z,25.26
2018-07-21T10:27:39.956Z,25.18
2018-07-21T10:30:07.538Z,25.16
2018-07-21T10:32:34.957Z,25.09
2018-07-21T10:35:02.271Z,24.88
2018-07-21T10:37:29.649Z,24.75
2018-07-21T10:39:56.959Z,24.66
2018-07-21T10:42:24.326Z,24.56
2018-07-21T10:44:51.703Z,24.33
2018-07-21T10:47:19.373Z,24.36
2018-07-21T10:49:47.711Z,24.33
2018-07-21T10:52:15.759Z,24.31
2018-07-21T10:54:43.754Z,24.15
2018-07-21T10:57:12.886Z,24.03
2018-07-21T10:59:40.210Z,23.86
2018-07-21T11:02:07.629Z,23.72
2018-07-21T11:04:34.931Z,23.41
2018-07-21T11:07:02.286Z,23.27
2018-07-21T11:09:29.738Z,23.21
2018-07-21T11:11:57.029Z,23.38
2018-07-21T11:14:24.326Z,23.44
2018-07-21T11:16:51.741Z,23.61
2018-07-21T11:19:19.074Z,23.71
2018-07-21T11:21:46.780Z,23.84
2018-07-21T11:24:14.451Z,23.90
2018-07-21T11:26:41.757Z,23.89
2018-07-21T11:29:10.145Z,24.04
2018-07-21T11:31:37.984Z,23.96
2018-07-21T11:34:05.510Z,23.78
2018-07-21T11:36:33.101Z,23.76
2018-07-21T11:39:00.468Z,23.82
2018-07-21T11:41:27.813Z,23.94
2018-07-21T11:43:55.138Z,23.70
2018-07-21T11:46:22.410Z,23.66
2018-07-21T11:48:49.778Z,23.54
2018-07-21T11:51:17.176Z,23.46
2018-07-21T11:53:44.759Z,23.32
2018-07-21T11:56:12.530Z,23.15
2018-07-21T11:58:39.871Z,22.90
2018-07-21T12:01:07.722Z,22.86
2018-07-21T12:03:36.105Z,22.83
2018-07-21T12:06:03.569Z,22.79
2018-07-21T12:08:30.906Z,22.82
2018-07-21T12:10:58.211Z,22.78
2018-07-21T12:13:27.325Z,22.89
2018-07-21T12:16:04.740Z,22.77
2018-07-21T12:18:32.141Z,22.80
2018-07-21T12:21:00.144Z,22.75
2018-07-21T12:23:28.119Z,22.81
2018-07-21T12:25:56.702Z,22.81
2018-07-21T12:28:24.301Z,22.82
2018-07-21T12:30:51.658Z,22.91
2018-07-21T12:33:19.013Z,23.02
2018-07-21T12:35:46.358Z,23.12
2018-07-21T12:38:14.311Z,23.06
2018-07-21T12:40:42.401Z,23.02
2018-07-21T12:43:09.833Z,22.89
2018-07-21T12:45:37.740Z,22.47
2018-07-21T12:48:05.076Z,22.35
2018-07-21T12:50:32.909Z,22.41
2018-07-21T12:53:00.285Z,22.39
2018-07-21T12:55:27.793Z,22.32
2018-07-21T12:57:55.219Z,22.19
2018-07-21T13:00:22.700Z,22.09
2018-07-21T13:02:50.096Z,22.11
2018-07-21T13:05:17.884Z,22.04
2018-07-21T13:07:45.346Z,21.95
2018-07-21T13:10:14.374Z,21.78
2018-07-21T13:12:41.762Z,21.64
2018-07-21T13:15:09.207Z,21.62
2018-07-21T13:17:36.672Z,21.58
2018-07-21T13:20:05.091Z,21.60
2018-07-21T13:22:33.374Z,21.58
2018-07-21T13:25:00.769Z,21.51
2018-07-21T13:27:28.078Z,21.44
2018-07-21T13:29:55.559Z,21.39
2018-07-21T13:32:22.895Z,21.38
2018-07-21T13:34:50.805Z,21.35
2018-07-21T13:37:18.194Z,21.37
2018-07-21T13:39:46.317Z,21.40
2018-07-21T13:42:13.779Z,21.38
2018-07-21T13:44:41.178Z,21.38
2018-07-21T13:47:08.553Z,21.48
2018-07-21T13:49:36.078Z,21.57
2018-07-21T13:52:04.135Z,21.64
2018-07-21T13:54:31.404Z,21.74
2018-07-21T13:56:59.009Z,21.70
2018-07-21T13:59:26.410Z,21.67
2018-07-21T14:01:53.823Z,21.67
2018-07-21T14:04:21.186Z,21.63
2018-07-21T14:06:49.169Z,21.69
2018-07-21T14:09:16.648Z,21.73
2018-07-21T14:11:43.993Z,21.76
2018-07-21T14:14:11.393Z,21.74
2018-07-21T14:16:38.738Z,21.80
2018-07-21T14:19:06.314Z,21.78
2018-07-21T14:21:33.635Z,21.78
2018-07-21T14:24:01.184Z,21.82
2018-07-21T14:26:28.444Z,21.81
2018-07-21T14:28:55.875Z,21.85
2018-07-21T14:31:23.579Z,21.74
2018-07-21T14:33:51.880Z,21.75
2018-07-21T14:36:19.436Z,21.79
2018-07-21T14:38:46.794Z,21.80
2018-07-21T14:41:14.108Z,21.80
2018-07-21T14:43:41.510Z,21.83
2018-07-21T14:46:09.426Z,21.85
2018-07-21T14:48:36.851Z,21.81
2018-07-21T14:51:04.263Z,21.78
2018-07-21T14:53:31.979Z,21.78
2018-07-21T14:55:59.330Z,21.75
2018-07-21T14:58:26.683Z,21.71
2018-07-21T15:00:54.125Z,21.71
2018-07-21T15:03:21.694Z,21.72
2018-07-21T15:05:49.082Z,21.72
2018-07-21T15:08:16.441Z,21.72
2018-07-21T15:10:43.862Z,21.69
2018-07-21T15:13:11.907Z,21.62
2018-07-21T15:15:39.482Z,21.58
2018-07-21T15:18:06.860Z,21.47
2018-07-21T15:20:35.042Z,21.35
2018-07-21T15:23:02.651Z,21.16
2018-07-21T15:25:30.048Z,21.07
2018-07-21T15:27:57.384Z,21.06
2018-07-21T15:30:24.741Z,21.10
2018-07-21T15:32:52.227Z,21.16
2018-07-21T15:35:19.607Z,21.17
2018-07-21T15:37:47.012Z,21.18
2018-07-21T15:40:14.397Z,21.19
2018-07-21T15:42:41.738Z,21.07
2018-07-21T15:45:09.728Z,21.02
2018-07-21T15:47:37.107Z,20.99
2018-07-21T15:50:04.691Z,20.98
2018-07-21T15:52:32.092Z,21.00
2018-07-21T15:54:59.490Z,20.95
2018-07-21T15:57:27.652Z,20.98
2018-07-21T15:59:55.050Z,20.98
2018-07-21T16:02:22.472Z,21.02
2018-07-21T16:04:49.880Z,21.04
2018-07-21T16:07:17.343Z,20.99
2018-07-21T16:09:45.127Z,20.96
2018-07-21T16:12:12.512Z,20.96
2018-07-21T16:14:39.995Z,21.02
2018-07-21T16:17:07.304Z,21.00
2018-07-21T16:19:34.644Z,21.07
2018-07-21T16:22:02.024Z,21.09
2018-07-21T16:24:29.354Z,20.99
2018-07-21T16:26:56.753Z,20.95
2018-07-21T16:29:24.170Z,20.90
2018-07-21T16:31:52.255Z,20.88
2018-07-21T16:34:20.934Z,20.86
2018-07-21T16:36:48.326Z,20.86
2018-07-21T16:39:16.151Z,20.93
2018-07-21T16:41:43.522Z,20.92
2018-07-21T16:44:11.376Z,20.96
2018-07-21T16:46:39.102Z,20.93
2018-07-21T16:49:06.480Z,20.94
2018-07-21T16:51:34.018Z,20.93
2018-07-21T16:54:01.449Z,20.82
2018-07-21T16:56:29.611Z,20.71
2018-07-21T16:58:57.246Z,20.70
2018-07-21T17:01:24.565Z,20.70
2018-07-21T17:03:52.257Z,20.67
2018-07-21T17:06:19.762Z,20.67
2018-07-21T17:08:48.216Z,20.69
2018-07-21T17:11:15.597Z,20.64
2018-07-21T17:13:43.006Z,20.64
2018-07-21T17:16:10.396Z,20.61
2018-07-21T17:18:38.798Z,20.59
2018-07-21T17:21:06.156Z,20.59
2018-07-21T17:23:33.813Z,20.47
2018-07-21T17:26:01.242Z,20.45
2018-07-21T17:28:28.584Z,20.45
2018-07-21T17:30:56.966Z,20.42
2018-07-21T17:33:24.387Z,20.41
2018-07-21T17:35:52.776Z,20.33
2018-07-21T17:38:21.395Z,20.34
2018-07-21T17:40:49.236Z,20.34
2018-07-21T17:43:16.678Z,20.37
2018-07-21T17:45:44.380Z,20.37
2018-07-21T17:48:11.742Z,20.36
2018-07-21T17:50:39.306Z,20.36
2018-07-21T17:53:07.167Z,20.36
2018-07-21T17:55:35.011Z,20.36
2018-07-21T17:58:03.303Z,20.37
2018-07-21T18:00:30.745Z,20.34
2018-07-21T18:02:58.350Z,20.32
2018-07-21T18:05:26.515Z,20.23
2018-07-21T18:07:53.719Z,20.06
2018-07-21T18:10:21.721Z,20.03
2018-07-21T18:12:49.219Z,20.04
2018-07-21T18:15:16.554Z,20.02
2018-07-21T18:17:43.961Z,19.97
2018-07-21T18:20:11.331Z,19.95
2018-07-21T18:22:38.711Z,19.94
2018-07-21T18:25:06.135Z,19.91
2018-07-21T18:27:33.465Z,19.93
2018-07-21T18:30:01.684Z,19.97
2018-07-21T18:32:30.378Z,20.01
2018-07-21T18:34:58.000Z,19.97
2018-07-21T18:37:25.542Z,19.89
2018-07-21T18:39:53.261Z,19.82
2018-07-21T18:42:21.801Z,19.77
2018-07-21T18:44:49.473Z,19.71
2018-07-21T18:47:18.971Z,19.65
2018-07-21T18:49:47.849Z,19.60
2018-07-21T18:52:15.478Z,19.59
2018-07-21T18:54:44.442Z,19.63
2018-07-21T18:57:12.511Z,19.64
2018-07-21T18:59:40.105Z,19.58
2018-07-21T19:02:07.708Z,19.53
2018-07-21T19:04:36.910Z,19.51
2018-07-21T19:07:06.146Z,19.50
2018-07-21T19:09:33.866Z,19.46
2018-07-21T19:12:07.050Z,19.48
2018-07-21T19:14:34.941Z,19.52
2018-07-21T19:17:05.965Z,19.56
2018-07-21T19:19:39.443Z,19.51
2018-07-21T19:22:08.684Z,19.45
2018-07-21T19:24:37.085Z,19.42
2018-07-21T19:27:10.743Z,19.41
2018-07-21T19:29:38.147Z,19.35
2018-07-21T19:32:11.331Z,19.35
2018-07-21T19:34:39.624Z,19.30
2018-07-21T19:38:10.934Z,19.27
2018-07-21T19:40:38.298Z,19.24
2018-07-21T19:43:05.940Z,19.21
2018-07-21T19:45:33.515Z,19.21
2018-07-21T19:48:00.893Z,19.16
2018-07-21T19:50:28.266Z,19.10
2018-07-21T19:52:56.384Z,19.08
2018-07-21T19:55:23.804Z,19.00
2018-07-21T19:57:51.885Z,18.90
2018-07-21T20:00:19.475Z,18.86
2018-07-21T20:02:47.529Z,18.84
2018-07-21T20:05:15.233Z,18.82
2018-07-21T20:07:42.936Z,18.84
2018-07-21T20:10:10.394Z,18.84
2018-07-21T20:12:37.905Z,18.80
2018-07-21T20:15:05.298Z,18.76
2018-07-21T20:17:32.999Z,18.79
2018-07-21T20:20:00.452Z,18.76
2018-07-21T20:22:27.729Z,18.69
2018-07-21T20:24:55.298Z,18.62
2018-07-21T20:27:23.561Z,18.58
2018-07-21T20:29:51.018Z,18.59
2018-07-21T20:32:18.485Z,18.58
2018-07-21T20:34:45.744Z,18.57
2018-07-21T20:37:12.971Z,18.54
2018-07-21T20:39:40.300Z,18.56
2018-07-21T20:42:07.581Z,18.58
2018-07-21T20:44:34.891Z,18.65
2018-07-21T20:47:02.162Z,18.66
2018-07-21T20:49:29.827Z,18.65
2018-07-21T20:51:57.189Z,18.68
2018-07-21T20:54:24.512Z,18.69
2018-07-21T20:56:51.837Z,18.72
2018-07-21T20:59:19.840Z,18.71
2018-07-21T21:01:47.360Z,18.71
2018-07-21T21:04:14.746Z,18.73
2018-07-21T21:06:42.097Z,18.74
2018-07-21T21:09:10.601Z,18.75
2018-07-21T21:11:38.148Z,18.76
2018-07-21T21:14:05.460Z,18.71
2018-07-21T21:16:32.723Z,18.71
2018-07-21T21:19:00.017Z,18.68
2018-07-21T21:21:27.248Z,18.67
2018-07-21T21:23:54.542Z,18.67
2018-07-21T21:26:22.418Z,18.70
2018-07-21T21:28:49.670Z,18.68
2018-07-21T21:31:16.886Z,18.72
2018-07-21T21:33:44.171Z,18.74
2018-07-21T21:36:11.460Z,18.71
2018-07-21T21:38:38.775Z,18.73
2018-07-21T21:41:06.033Z,18.73
2018-07-21T21:43:33.324Z,18.71
2018-07-21T21:46:00.621Z,18.65
2018-07-21T21:48:27.940Z,18.65
2018-07-21T21:50:55.259Z,18.61
2018-07-21T21:53:22.533Z,18.58
2018-07-21T21:55:49.849Z,18.59
2018-07-21T21:58:17.249Z,18.62
2018-07-21T22:01:05.555Z,18.66
2018-07-21T22:03:33.644Z,18.66
2018-07-21T22:06:01.119Z,18.65
2018-07-21T22:08:29.153Z,18.65
2018-07-21T22:10:56.486Z,18.63
2018-07-21T22:13:23.921Z,18.62
2018-07-21T22:15:51.677Z,18.52
2018-07-21T22:18:19.134Z,18.52
2018-07-21T22:20:46.467Z,18.52
2018-07-21T22:23:13.743Z,18.59
2018-07-21T22:25:41.149Z,18.60
2018-07-21T22:28:08.446Z,18.61
2018-07-21T22:30:35.781Z,18.60
2018-07-21T22:33:03.500Z,18.58
2018-07-21T22:35:32.052Z,18.54
2018-07-21T22:37:59.671Z,18.48
2018-07-21T22:40:27.295Z,18.44
2018-07-21T22:42:54.587Z,18.41
2018-07-21T22:45:21.897Z,18.39
2018-07-21T22:47:49.157Z,18.36
2018-07-21T22:50:16.491Z,18.31
2018-07-21T22:52:43.945Z,18.26
2018-07-21T22:55:11.345Z,18.25
2018-07-21T22:57:38.854Z,18.21
2018-07-21T23:00:06.971Z,18.21
2018-07-21T23:02:34.486Z,18.23
2018-07-21T23:05:01.733Z,18.25
2018-07-21T23:07:28.993Z,18.28
2018-07-21T23:09:56.315Z,18.25
2018-07-21T23:12:23.584Z,18.24
2018-07-21T23:14:51.010Z,18.23
2018-07-21T23:17:18.288Z,18.22
2018-07-21T23:19:45.521Z,18.19
2018-07-21T23:22:12.758Z,18.14
2018-07-21T23:24:40.002Z,18.07
2018-07-21T23:27:07.264Z,18.03
2018-07-21T23:29:34.523Z,18.02
2018-07-21T23:32:01.992Z,17.99
2018-07-21T23:34:29.228Z,17.97
2018-07-21T23:36:56.629Z,17.98
2018-07-21T23:39:23.863Z,17.97
2018-07-21T23:41:51.350Z,17.92
2018-07-21T23:44:18.717Z,17.87
2018-07-21T23:46:46.010Z,17.86
2018-07-21T23:49:13.242Z,17.84
2018-07-21T23:51:40.512Z,17.84
2018-07-21T23:54:08.146Z,17.77
2018-07-21T23:56:35.539Z,17.68
2018-07-21T23:59:03.262Z,17.69
